Latest Weather Observations for Noarlunga

IDS60801

Issued at 10:11 pm CST Sunday 21 July 2019 (issued every 10 minutes, with the page automatically refreshed every 10 minutes)

About weather observations | Map of weather stations | Latest weather observations for SA | Other Formats
Station Details ID: 023885 Name: NOARLUNGA Lat: -35.16 Lon: 138.51 Height: 55.0 m
Data from the previous 72 hours. | See also: Recent months at Noarlunga
Date/Time
CST
Temp
°C
App
Temp
°C
Dew
Point
°C
Rel
Hum
%
Delta-T
°C
Wind Press
QNH
hPa
Press
MSL
hPa
Rain since
9am
mm
Dir  Spd
km/h
Gust
km/h
Spd
kts
Gust
kts
21/10:00pm 11.4 7.8 6.9 74 2.1 N 15 20 8 11 - - 0.0
21/09:30pm 12.4 8.3 7.7 73 2.3 N 19 28 10 15 - - 0.0
21/09:00pm 12.7 8.5 7.6 71 2.5 N 19 28 10 15 - - 0.0
21/08:30pm 12.9 8.7 7.4 69 2.7 N 19 26 10 14 - - 0.0
21/08:00pm 12.5 8.7 7.4 71 2.5 N 17 22 9 12 - - 0.0
21/07:30pm 12.6 8.8 7.7 72 2.4 N 17 24 9 13 - - 0.0
21/07:00pm 12.3 9.0 8.0 75 2.1 N 15 20 8 11 - - 0.0
21/06:30pm 12.2 9.0 8.3 77 1.9 N 15 20 8 11 - - 0.0
21/06:00pm 12.4 9.5 8.3 76 2.0 N 13 17 7 9 - - 0.0
21/05:30pm 12.6 9.8 8.5 76 2.0 NNW 13 19 7 10 - - 0.0
21/05:00pm 13.2 10.1 8.7 74 2.3 NNW 15 22 8 12 - - 0.0
21/04:30pm 13.9 10.6 8.1 68 2.9 NNW 15 24 8 13 - - 0.0
21/04:00pm 14.4 11.1 7.9 65 3.2 NNW 15 22 8 12 - - 0.0
21/03:30pm 14.6 10.6 8.1 65 3.3 NNW 19 28 10 15 - - 0.0
21/03:00pm 14.9 10.9 8.2 64 3.4 NW 19 32 10 17 - - 0.0
21/02:30pm 14.7 10.5 7.5 62 3.6 NNW 19 32 10 17 - - 0.0
21/02:00pm 14.6 10.4 7.6 63 3.5 NNW 19 30 10 16 - - 0.0
21/01:30pm 14.8 10.4 7.6 62 3.6 NW 20 30 11 16 - - 0.0
21/01:00pm 15.0 11.0 8.3 64 3.4 NW 19 30 10 16 - - 0.0
21/12:30pm 14.8 11.1 9.4 70 2.8 NNW 19 28 10 15 - - 0.0
21/12:00pm 14.0 10.0 8.2 68 2.9 NNW 19 28 10 15 - - 0.0
21/11:30am 14.0 9.8 8.2 68 2.9 NNW 20 33 11 18 - - 0.0
21/11:00am 13.9 9.8 7.9 67 3.0 NNW 19 28 10 15 - - 0.0
21/10:30am 13.7 9.9 7.5 66 3.0 NW 17 26 9 14 - - 0.0
21/10:00am 13.3 9.2 8.0 70 2.6 NW 19 28 10 15 - - 0.0
21/09:30am 12.9 9.4 7.4 69 2.7 NW 15 24 8 13 - - 0.0
21/09:00am 12.3 8.8 7.4 72 2.4 WNW 15 22 8 12 - - 1.2
21/08:30am 11.6 8.6 7.5 76 2.0 NW 13 20 7 11 - - 1.2
21/08:00am 11.6 7.4 7.5 76 2.0 NW 19 30 10 16 - - 1.2
21/07:30am 9.5 7.1 6.9 84 1.2 NW 9 13 5 7 - - 1.2
21/07:00am 9.0 7.3 5.9 81 1.4 WNW 4 4 2 2 - - 1.2
21/06:30am 9.8 6.4 5.8 76 1.8 W 13 24 7 13 - - 1.2
21/06:19am 9.9 5.3 5.5 74 2.0 WNW 19 39 10 21 - - 0.8
21/06:00am 9.6 7.8 7.0 84 1.2 NW 6 7 3 4 - - 0.8
21/05:30am 10.4 8.4 7.1 80 1.6 WNW 7 11 4 6 - - 0.8
21/05:00am 11.2 9.2 6.3 72 2.3 W 6 9 3 5 - - 0.2
21/04:30am 11.5 8.1 6.0 69 2.6 W 13 20 7 11 - - 0.2
21/04:00am 11.7 8.8 6.6 71 2.4 W 11 19 6 10 - - 0.2
21/03:30am 11.8 8.9 8.1 78 1.8 W 13 20 7 11 - - 0.2
21/03:00am 11.5 8.8 8.9 84 1.3 WNW 13 20 7 11 - - 0.2
21/02:30am 12.6 9.3 7.9 73 2.3 WNW 15 24 8 13 - - 0.0
21/02:00am 13.2 9.7 8.9 75 2.2 WNW 17 24 9 13 - - 0.0
21/01:30am 13.3 8.8 8.6 73 2.4 WNW 22 35 12 19 - - 0.0
21/01:00am 13.6 10.7 9.6 77 2.1 WNW 15 24 8 13 - - 0.0
21/12:30am 13.9 10.5 9.3 74 2.4 WNW 17 28 9 15 - - 0.0
21/12:00am 14.2 10.2 10.6 79 1.9 NW 22 30 12 16 - - 0.0
 
Date/Time
CST
Temp
°C
App
Temp
°C
Dew
Point
°C
Rel
Hum
%
Delta-T
°C
Wind Press
QNH
hPa
Press
MSL
hPa
Rain since
9am
mm
Dir  Spd
km/h
Gust
km/h
Spd
kts
Gust
kts
20/11:30pm 14.3 10.3 10.3 77 2.1 NW 22 33 12 18 - - 0.0
20/11:00pm 15.0 10.0 9.6 70 2.8 NW 26 41 14 22 - - 0.0
20/10:30pm 15.3 10.3 9.4 68 3.0 NW 26 43 14 23 - - 0.0
20/10:00pm 15.0 10.2 7.5 61 3.7 NNW 22 32 12 17 - - 0.0
20/09:30pm 15.3 7.5 3.1 44 5.5 N 33 50 18 27 - - 0.0
20/09:00pm 17.0 6.8 -0.2 31 7.4 N 43 72 23 39 - - 0.0
20/08:56pm 16.9 6.7 -0.3 31 7.4 N 43 72 23 39 - - 0.0
20/08:32pm 16.8 8.5 0.0 32 7.2 N 33 54 18 29 - - 0.0
20/08:30pm 16.8 8.5 0.0 32 7.2 N 33 50 18 27 - - 0.0
20/08:00pm 16.8 8.6 0.5 33 7.1 NNE 33 54 18 29 - - 0.0
20/07:34pm 17.1 9.1 0.3 32 7.3 N 32 50 17 27 - - 0.0
20/07:30pm 16.9 8.9 0.5 33 7.1 NNE 32 46 17 25 - - 0.0
20/07:10pm 17.2 8.7 0.8 33 7.2 N 35 57 19 31 - - 0.0
20/07:00pm 17.3 8.8 0.9 33 7.2 NNE 35 54 19 29 - - 0.0
20/06:45pm 17.3 8.9 1.3 34 7.1 N 35 56 19 30 - - 0.0
20/06:30pm 17.4 8.9 1.0 33 7.2 N 35 54 19 29 - - 0.0
20/06:00pm 17.4 8.6 1.4 34 7.1 N 37 63 20 34 - - 0.0
20/05:30pm 17.8 9.1 1.7 34 7.2 N 37 56 20 30 - - 0.0
20/05:05pm 18.2 10.3 2.5 35 7.2 N 33 56 18 30 - - 0.0
20/05:00pm 18.1 10.4 2.4 35 7.2 N 32 48 17 26 - - 0.0
20/04:32pm 18.6 10.0 2.4 34 7.4 N 37 57 20 31 - - 0.0
20/04:30pm 18.7 9.7 2.5 34 7.5 N 39 57 21 31 - - 0.0
20/04:00pm 18.9 11.1 3.1 35 7.4 N 33 52 18 28 - - 0.0
20/03:37pm 19.2 11.1 3.0 34 7.6 N 35 54 19 29 - - 0.0
20/03:30pm 19.1 10.6 2.9 34 7.5 N 37 54 20 29 - - 0.0
20/03:05pm 19.0 10.9 3.2 35 7.4 N 35 56 19 30 - - 0.0
20/03:00pm 19.0 10.5 3.2 35 7.4 N 37 56 20 30 - - 0.0
20/02:30pm 19.1 10.9 2.9 34 7.5 N 35 59 19 32 - - 0.0
20/02:17pm 19.1 11.2 2.5 33 7.7 N 33 59 18 32 - - 0.0
20/02:00pm 19.1 12.3 2.9 34 7.5 N 28 46 15 25 - - 0.0
20/01:30pm 18.4 10.6 2.7 35 7.2 N 33 56 18 30 - - 0.0
20/01:00pm 18.0 9.8 2.7 36 7.0 N 35 57 19 31 - - 0.0
20/12:36pm 17.8 10.8 1.7 34 7.2 N 28 48 15 26 - - 0.0
20/12:30pm 17.9 11.0 2.6 36 7.0 N 28 43 15 23 - - 0.0
20/12:00pm 17.6 9.8 2.0 35 7.0 N 32 44 17 24 - - 0.0
20/11:30am 17.1 9.0 1.1 34 7.1 N 33 54 18 29 - - 0.0
20/11:00am 16.6 8.6 0.7 34 6.9 N 32 57 17 31 - - 0.0
20/10:58am 16.8 9.2 0.5 33 7.1 N 30 57 16 31 - - 0.0
20/10:30am 16.1 7.9 0.3 34 6.8 N 33 50 18 27 - - 0.0
20/10:00am 15.9 7.6 -0.3 33 6.9 N 33 54 18 29 - - 0.0
20/09:30am 15.5 7.8 0.1 35 6.6 N 30 54 16 29 - - 0.0
20/09:29am 15.5 7.8 -0.3 34 6.7 N 30 54 16 29 - - 0.0
20/09:00am 14.8 7.5 0.3 37 6.2 NNE 28 43 15 23 - - 0.0
20/08:30am 14.5 6.8 -0.4 36 6.2 NNE 30 43 16 23 - - 0.0
20/08:00am 14.0 6.7 -0.1 38 5.9 NNE 28 43 15 23 - - 0.0
20/07:30am 13.6 6.7 0.3 40 5.6 NNE 26 39 14 21 - - 0.0
20/07:00am 13.6 7.1 0.3 40 5.6 NNE 24 33 13 18 - - 0.0
20/06:30am 13.9 6.6 0.2 39 5.8 NNE 28 46 15 25 - - 0.0
20/06:21am 14.1 6.9 0.4 39 5.8 N 28 46 15 25 - - 0.0
20/06:00am 14.1 6.5 0.7 40 5.7 N 30 44 16 24 - - 0.0
20/05:30am 14.0 6.8 1.0 41 5.6 N 28 39 15 21 - - 0.0
20/05:00am 13.9 6.8 1.2 42 5.5 N 28 44 15 24 - - 0.0
20/04:30am 13.9 7.2 1.2 42 5.5 NNE 26 39 14 21 - - 0.0
20/04:00am 14.3 7.2 1.2 41 5.7 N 28 41 15 22 - - 0.0
20/03:45am 14.6 7.5 1.5 41 5.7 N 28 48 15 26 - - 0.0
20/03:30am 14.6 7.5 1.2 40 5.8 N 28 43 15 23 - - 0.0
20/03:00am 14.1 7.7 1.1 41 5.6 NNE 24 35 13 19 - - 0.0
20/02:30am 13.9 7.5 1.2 42 5.5 NNE 24 35 13 19 - - 0.0
20/02:00am 13.6 7.6 1.3 43 5.3 NNE 22 32 12 17 - - 0.0
20/01:30am 13.8 8.2 1.1 42 5.4 NNE 20 33 11 18 - - 0.0
20/01:00am 14.3 8.3 0.9 40 5.7 NNE 22 33 12 18 - - 0.0
20/12:30am 13.9 7.8 0.5 40 5.7 N 22 35 12 19 - - 0.0
20/12:00am 14.0 8.0 1.0 41 5.6 NNE 22 33 12 18 - - 0.0
 
Date/Time
CST
Temp
°C
App
Temp
°C
Dew
Point
°C
Rel
Hum
%
Delta-T
°C
Wind Press
QNH
hPa
Press
MSL
hPa
Rain since
9am
mm
Dir  Spd
km/h
Gust
km/h
Spd
kts
Gust
kts
19/11:30pm 14.2 8.7 2.1 44 5.3 NNE 20 32 11 17 - - 0.0
19/11:00pm 14.1 9.0 3.3 48 4.9 NNE 19 30 10 16 - - 0.0
19/10:30pm 14.5 9.4 3.0 46 5.2 NNE 19 30 10 16 - - 0.0
19/10:00pm 14.4 9.3 3.2 47 5.1 NNE 19 28 10 15 - - 0.0
19/09:30pm 13.1 9.0 4.5 56 3.9 NE 15 20 8 11 - - 0.0
19/09:00pm 12.7 8.3 4.9 59 3.6 NE 17 20 9 11 - - 0.0
19/08:30pm 12.7 8.7 5.1 60 3.5 NE 15 19 8 10 - - 0.0
19/08:00pm 12.7 8.9 5.6 62 3.3 NE 15 19 8 10 - - 0.0
19/07:30pm 12.8 9.0 5.7 62 3.3 NE 15 17 8 9 - - 0.0
19/07:00pm 12.7 9.3 6.1 64 3.1 NE 13 17 7 9 - - 0.0
19/06:30pm 13.1 10.2 6.5 64 3.2 NE 11 15 6 8 - - 0.0
19/06:00pm 13.9 11.0 6.5 61 3.6 NNE 11 15 6 8 - - 0.0
19/05:30pm 14.2 10.6 6.6 60 3.7 N 15 20 8 11 - - 0.0
19/05:00pm 14.7 11.2 7.0 60 3.8 N 15 20 8 11 - - 0.0
19/04:30pm 15.4 11.9 7.2 58 4.1 N 15 22 8 12 - - 0.0
19/04:00pm 15.9 11.9 6.6 54 4.6 N 17 24 9 13 - - 0.0
19/03:30pm 16.1 12.1 6.5 53 4.7 N 17 24 9 13 - - 0.0
19/03:00pm 16.1 10.9 5.4 49 5.1 N 22 33 12 18 - - 0.0
19/02:30pm 16.6 11.9 6.1 50 5.1 N 20 32 11 17 - - 0.0
19/02:00pm 16.4 11.6 5.4 48 5.3 N 20 30 11 16 - - 0.0
19/01:30pm 16.3 11.9 6.4 52 4.8 N 19 28 10 15 - - 0.0
19/01:00pm 16.5 12.0 6.1 50 5.1 N 19 30 10 16 - - 0.0
19/12:30pm 15.7 10.2 4.1 46 5.4 N 22 35 12 19 - - 0.0
19/12:00pm 15.4 11.2 5.9 53 4.6 N 17 24 9 13 - - 0.0
19/11:30am 14.8 10.8 6.6 58 4.0 N 17 22 9 12 - - 0.0
19/11:00am 14.5 11.0 7.3 62 3.5 N 15 22 8 12 - - 0.0
19/10:30am 13.6 9.9 6.5 62 3.4 N 15 20 8 11 - - 0.0
19/10:00am 12.7 8.6 6.3 65 3.0 NNE 17 26 9 14 - - 0.0
19/09:30am 12.1 8.0 6.2 67 2.8 NNE 17 26 9 14 - - 0.0
19/09:00am 11.5 6.8 6.2 70 2.5 NNE 20 30 11 16 - - 0.2
19/08:30am 10.8 7.2 6.9 77 1.9 NNE 15 20 8 11 - - 0.2
19/08:00am 9.8 7.4 7.1 83 1.3 NNE 9 17 5 9 - - 0.2
19/07:30am 9.1 7.0 6.7 85 1.1 NNE 7 9 4 5 - - 0.0
19/07:00am 9.1 7.0 6.7 85 1.1 NE 7 13 4 7 - - 0.0
19/06:30am 9.1 5.9 6.9 86 1.0 NE 13 19 7 10 - - 0.0
19/06:00am 9.3 6.5 6.9 85 1.1 NNE 11 17 6 9 - - 0.0
19/05:30am 9.4 7.0 7.2 86 1.0 NE 9 15 5 8 - - 0.0
19/05:00am 9.8 6.7 7.4 85 1.1 NNE 13 20 7 11 - - 0.0
19/04:30am 9.5 7.2 7.3 86 1.0 NNE 9 17 5 9 - - 0.0
19/04:00am 9.3 6.5 7.1 86 1.0 NE 11 13 6 7 - - 0.0
19/03:30am 9.3 7.3 6.9 85 1.1 NNE 7 11 4 6 - - 0.0
19/03:00am 9.5 7.1 6.9 84 1.2 NE 9 13 5 7 - - 0.0
19/02:30am 10.2 7.9 7.6 84 1.2 N 9 19 5 10 - - 0.0
19/02:00am 10.0 8.3 7.4 84 1.2 NNE 6 11 3 6 - - 0.0
19/01:30am 10.6 7.2 7.8 83 1.4 N 15 20 8 11 - - 0.0
19/01:00am 10.2 7.6 7.6 84 1.2 N 11 17 6 9 - - 0.0
19/12:30am 10.5 7.9 7.9 84 1.3 N 11 17 6 9 - - 0.0
19/12:00am 11.0 8.1 8.2 83 1.4 N 13 19 7 10 - - 0.0
 
Date/Time
CST
Temp
°C
App
Temp
°C
Dew
Point
°C
Rel
Hum
%
Delta-T
°C
Wind Press
QNH
hPa
Press
MSL
hPa
Rain since
9am
mm
Dir  Spd
km/h
Gust
km/h
Spd
kts
Gust
kts
18/11:30pm 11.5 8.3 8.5 82 1.5 NNW 15 26 8 14 - - 0.0
18/11:00pm 11.2 7.6 8.4 83 1.4 N 17 24 9 13 - - 0.0
18/10:30pm 10.8 7.5 8.2 84 1.3 N 15 20 8 11 - - 0.0

Other formats

Comma delimited format used in spreadsheet applications
http://www.bom.gov.au/fwo/IDS60801/IDS60801.94808.axf

JavaScript Object Notation format (JSON) in row-major order
http://www.bom.gov.au/fwo/IDS60801/IDS60801.94808.json

Data quality

Most of these data are generated automatically and are frequently updated. Quality checks on data are not normally performed. It is possible for incorrect values to appear. Refer to information at About Latest Weather Observations and please check the disclaimer before using these data.